sensor_id;sensor_type;location;lat;lon;timestamp;P1;durP1;ratioP1;P2;durP2;ratioP2
29712;SDS011;16623;53.632;10.016;2022-10-16T00:01:15;15.43;;;7.00;;
29712;SDS011;16623;53.632;10.016;2022-10-16T00:03:44;9.18;;;6.40;;
29712;SDS011;16623;53.632;10.016;2022-10-16T00:06:11;8.73;;;7.03;;
29712;SDS011;16623;53.632;10.016;2022-10-16T00:08:38;10.27;;;6.90;;
29712;SDS011;16623;53.632;10.016;2022-10-16T00:11:05;12.10;;;6.88;;
29712;SDS011;16623;53.632;10.016;2022-10-16T00:13:33;7.72;;;5.75;;
29712;SDS011;16623;53.632;10.016;2022-10-16T00:16:00;9.98;;;5.65;;
29712;SDS011;16623;53.632;10.016;2022-10-16T00:18:26;9.85;;;6.70;;
29712;SDS011;16623;53.632;10.016;2022-10-16T00:20:52;9.82;;;5.28;;
29712;SDS011;16623;53.632;10.016;2022-10-16T00:23:18;12.23;;;5.22;;
29712;SDS011;16623;53.632;10.016;2022-10-16T00:25:45;13.07;;;5.53;;
29712;SDS011;16623;53.632;10.016;2022-10-16T00:28:20;8.73;;;4.20;;
29712;SDS011;16623;53.632;10.016;2022-10-16T00:30:46;9.25;;;4.40;;
29712;SDS011;16623;53.632;10.016;2022-10-16T00:33:11;8.02;;;4.65;;
29712;SDS011;16623;53.632;10.016;2022-10-16T00:35:37;6.22;;;3.63;;
29712;SDS011;16623;53.632;10.016;2022-10-16T00:38:02;9.77;;;4.25;;
29712;SDS011;16623;53.632;10.016;2022-10-16T00:40:28;8.00;;;2.88;;
29712;SDS011;16623;53.632;10.016;2022-10-16T00:42:53;6.97;;;3.22;;
29712;SDS011;16623;53.632;10.016;2022-10-16T00:45:19;9.80;;;2.88;;
29712;SDS011;16623;53.632;10.016;2022-10-16T00:47:45;4.10;;;2.70;;
29712;SDS011;16623;53.632;10.016;2022-10-16T00:52:52;9.77;;;3.22;;
29712;SDS011;16623;53.632;10.016;2022-10-16T00:55:18;6.68;;;3.47;;
29712;SDS011;16623;53.632;10.016;2022-10-16T00:57:44;3.17;;;2.50;;
29712;SDS011;16623;53.632;10.016;2022-10-16T01:00:15;5.45;;;2.47;;
29712;SDS011;16623;53.632;10.016;2022-10-16T01:02:43;8.85;;;2.80;;
29712;SDS011;16623;53.632;10.016;2022-10-16T01:05:08;5.18;;;2.38;;
29712;SDS011;16623;53.632;10.016;2022-10-16T01:07:56;4.85;;;2.28;;
29712;SDS011;16623;53.632;10.016;2022-10-16T01:10:54;5.65;;;2.42;;
29712;SDS011;16623;53.632;10.016;2022-10-16T01:13:34;7.45;;;2.97;;
29712;SDS011;16623;53.632;10.016;2022-10-16T01:19:04;3.85;;;2.53;;
29712;SDS011;16623;53.632;10.016;2022-10-16T01:21:46;8.40;;;2.65;;
29712;SDS011;16623;53.632;10.016;2022-10-16T01:27:07;5.07;;;2.28;;
29712;SDS011;16623;53.632;10.016;2022-10-16T01:29:39;6.13;;;2.38;;
29712;SDS011;16623;53.632;10.016;2022-10-16T01:38:16;7.13;;;2.30;;
29712;SDS011;16623;53.632;10.016;2022-10-16T01:40:59;4.45;;;2.10;;
29712;SDS011;16623;53.632;10.016;2022-10-16T01:43:36;4.80;;;1.98;;
29712;SDS011;16623;53.632;10.016;2022-10-16T01:46:18;6.15;;;1.95;;
29712;SDS011;16623;53.632;10.016;2022-10-16T01:48:46;9.57;;;2.30;;
29712;SDS011;16623;53.632;10.016;2022-10-16T01:51:15;5.47;;;2.20;;
29712;SDS011;16623;53.632;10.016;2022-10-16T01:53:43;3.75;;;1.70;;
29712;SDS011;16623;53.632;10.016;2022-10-16T01:56:17;6.50;;;2.03;;
29712;SDS011;16623;53.632;10.016;2022-10-16T01:58:47;2.88;;;1.73;;
29712;SDS011;16623;53.632;10.016;2022-10-16T02:01:21;7.50;;;1.73;;
29712;SDS011;16623;53.632;10.016;2022-10-16T02:03:48;10.55;;;1.88;;
29712;SDS011;16623;53.632;10.016;2022-10-16T02:06:18;3.30;;;1.90;;
29712;SDS011;16623;53.632;10.016;2022-10-16T02:08:43;6.35;;;2.38;;
29712;SDS011;16623;53.632;10.016;2022-10-16T02:11:09;6.38;;;2.20;;
29712;SDS011;16623;53.632;10.016;2022-10-16T02:13:44;5.03;;;1.92;;
29712;SDS011;16623;53.632;10.016;2022-10-16T02:16:13;3.33;;;2.20;;
29712;SDS011;16623;53.632;10.016;2022-10-16T02:18:40;5.40;;;2.15;;
29712;SDS011;16623;53.632;10.016;2022-10-16T02:21:18;3.30;;;2.10;;
29712;SDS011;16623;53.632;10.016;2022-10-16T02:23:54;4.07;;;2.05;;
29712;SDS011;16623;53.632;10.016;2022-10-16T02:26:35;5.60;;;2.15;;
29712;SDS011;16623;53.632;10.016;2022-10-16T02:29:11;6.10;;;2.50;;
29712;SDS011;16623;53.632;10.016;2022-10-16T02:31:41;8.77;;;2.08;;
29712;SDS011;16623;53.632;10.016;2022-10-16T02:34:12;3.83;;;2.10;;
29712;SDS011;16623;53.632;10.016;2022-10-16T02:36:39;7.72;;;2.03;;
29712;SDS011;16623;53.632;10.016;2022-10-16T02:39:05;6.43;;;1.90;;
29712;SDS011;16623;53.632;10.016;2022-10-16T02:41:31;5.18;;;2.25;;
29712;SDS011;16623;53.632;10.016;2022-10-16T02:43:57;4.60;;;2.10;;
29712;SDS011;16623;53.632;10.016;2022-10-16T02:46:23;5.28;;;2.10;;
29712;SDS011;16623;53.632;10.016;2022-10-16T02:48:49;5.57;;;2.03;;
29712;SDS011;16623;53.632;10.016;2022-10-16T02:51:14;3.90;;;1.85;;
29712;SDS011;16623;53.632;10.016;2022-10-16T02:53:40;5.28;;;2.20;;
29712;SDS011;16623;53.632;10.016;2022-10-16T02:56:05;5.90;;;1.98;;
29712;SDS011;16623;53.632;10.016;2022-10-16T02:58:31;4.97;;;1.73;;
29712;SDS011;16623;53.632;10.016;2022-10-16T03:00:57;5.03;;;1.67;;
29712;SDS011;16623;53.632;10.016;2022-10-16T03:03:23;4.80;;;1.75;;
29712;SDS011;16623;53.632;10.016;2022-10-16T03:05:48;6.95;;;3.80;;
29712;SDS011;16623;53.632;10.016;2022-10-16T03:08:14;5.35;;;2.40;;
29712;SDS011;16623;53.632;10.016;2022-10-16T03:10:39;4.45;;;1.40;;
29712;SDS011;16623;53.632;10.016;2022-10-16T03:13:05;2.50;;;1.50;;
29712;SDS011;16623;53.632;10.016;2022-10-16T03:15:30;4.90;;;1.88;;
29712;SDS011;16623;53.632;10.016;2022-10-16T03:17:59;5.88;;;2.22;;
29712;SDS011;16623;53.632;10.016;2022-10-16T03:20:25;4.90;;;1.85;;
29712;SDS011;16623;53.632;10.016;2022-10-16T03:22:51;6.18;;;1.77;;
29712;SDS011;16623;53.632;10.016;2022-10-16T03:25:19;4.60;;;1.50;;
29712;SDS011;16623;53.632;10.016;2022-10-16T03:27:44;6.82;;;2.20;;
29712;SDS011;16623;53.632;10.016;2022-10-16T03:30:10;5.00;;;2.00;;
29712;SDS011;16623;53.632;10.016;2022-10-16T03:32:36;6.03;;;2.42;;
29712;SDS011;16623;53.632;10.016;2022-10-16T03:35:02;3.50;;;1.95;;
29712;SDS011;16623;53.632;10.016;2022-10-16T03:37:27;5.55;;;2.03;;
29712;SDS011;16623;53.632;10.016;2022-10-16T03:39:53;3.17;;;1.63;;
29712;SDS011;16623;53.632;10.016;2022-10-16T03:42:18;5.38;;;2.03;;
29712;SDS011;16623;53.632;10.016;2022-10-16T03:44:44;4.32;;;1.92;;
29712;SDS011;16623;53.632;10.016;2022-10-16T03:47:09;8.90;;;2.35;;
29712;SDS011;16623;53.632;10.016;2022-10-16T03:49:35;4.03;;;2.08;;
29712;SDS011;16623;53.632;10.016;2022-10-16T03:52:00;6.25;;;1.77;;
29712;SDS011;16623;53.632;10.016;2022-10-16T03:54:26;6.03;;;1.80;;
29712;SDS011;16623;53.632;10.016;2022-10-16T03:56:52;4.15;;;1.83;;
29712;SDS011;16623;53.632;10.016;2022-10-16T03:59:17;3.70;;;1.98;;
29712;SDS011;16623;53.632;10.016;2022-10-16T04:01:43;18.42;;;3.47;;
29712;SDS011;16623;53.632;10.016;2022-10-16T04:04:09;4.97;;;1.50;;
29712;SDS011;16623;53.632;10.016;2022-10-16T04:06:34;4.30;;;2.50;;
29712;SDS011;16623;53.632;10.016;2022-10-16T04:09:00;5.88;;;2.30;;
29712;SDS011;16623;53.632;10.016;2022-10-16T04:11:25;5.85;;;2.10;;
29712;SDS011;16623;53.632;10.016;2022-10-16T04:13:51;9.85;;;2.13;;
29712;SDS011;16623;53.632;10.016;2022-10-16T04:16:16;4.40;;;1.98;;
29712;SDS011;16623;53.632;10.016;2022-10-16T04:18:42;6.43;;;2.15;;
29712;SDS011;16623;53.632;10.016;2022-10-16T04:21:08;3.63;;;1.75;;
29712;SDS011;16623;53.632;10.016;2022-10-16T04:23:33;3.90;;;1.83;;
29712;SDS011;16623;53.632;10.016;2022-10-16T04:25:59;4.75;;;1.70;;
29712;SDS011;16623;53.632;10.016;2022-10-16T04:28:25;3.80;;;1.92;;
29712;SDS011;16623;53.632;10.016;2022-10-16T04:30:51;4.97;;;1.80;;
29712;SDS011;16623;53.632;10.016;2022-10-16T04:33:17;4.82;;;2.78;;
29712;SDS011;16623;53.632;10.016;2022-10-16T04:35:42;3.75;;;2.00;;
29712;SDS011;16623;53.632;10.016;2022-10-16T04:38:08;9.27;;;2.28;;
29712;SDS011;16623;53.632;10.016;2022-10-16T04:40:33;7.35;;;2.30;;
29712;SDS011;16623;53.632;10.016;2022-10-16T04:43:01;3.28;;;1.67;;
29712;SDS011;16623;53.632;10.016;2022-10-16T04:45:28;11.77;;;2.00;;
29712;SDS011;16623;53.632;10.016;2022-10-16T04:47:57;4.32;;;1.70;;
29712;SDS011;16623;53.632;10.016;2022-10-16T04:50:23;9.90;;;2.40;;
29712;SDS011;16623;53.632;10.016;2022-10-16T04:52:49;7.32;;;1.63;;
29712;SDS011;16623;53.632;10.016;2022-10-16T04:55:14;6.47;;;1.92;;
29712;SDS011;16623;53.632;10.016;2022-10-16T04:57:40;4.13;;;1.90;;
29712;SDS011;16623;53.632;10.016;2022-10-16T05:00:06;4.25;;;2.10;;
29712;SDS011;16623;53.632;10.016;2022-10-16T05:02:33;4.45;;;2.10;;
29712;SDS011;16623;53.632;10.016;2022-10-16T05:04:58;5.25;;;2.00;;
29712;SDS011;16623;53.632;10.016;2022-10-16T05:07:24;9.50;;;2.55;;
29712;SDS011;16623;53.632;10.016;2022-10-16T05:09:49;5.68;;;2.53;;
29712;SDS011;16623;53.632;10.016;2022-10-16T05:12:16;7.10;;;3.28;;
29712;SDS011;16623;53.632;10.016;2022-10-16T05:14:41;3.88;;;2.10;;
29712;SDS011;16623;53.632;10.016;2022-10-16T05:17:07;11.77;;;2.70;;
29712;SDS011;16623;53.632;10.016;2022-10-16T05:19:32;8.10;;;2.53;;
29712;SDS011;16623;53.632;10.016;2022-10-16T05:21:58;5.40;;;2.70;;
29712;SDS011;16623;53.632;10.016;2022-10-16T05:24:23;6.00;;;2.22;;
29712;SDS011;16623;53.632;10.016;2022-10-16T05:26:49;6.18;;;3.45;;
29712;SDS011;16623;53.632;10.016;2022-10-16T05:29:15;8.25;;;2.60;;
29712;SDS011;16623;53.632;10.016;2022-10-16T05:31:40;6.03;;;2.97;;
29712;SDS011;16623;53.632;10.016;2022-10-16T05:34:06;8.18;;;3.95;;
29712;SDS011;16623;53.632;10.016;2022-10-16T05:36:32;6.22;;;2.83;;
29712;SDS011;16623;53.632;10.016;2022-10-16T05:38:57;10.60;;;2.72;;
29712;SDS011;16623;53.632;10.016;2022-10-16T05:41:26;12.45;;;2.60;;
29712;SDS011;16623;53.632;10.016;2022-10-16T05:43:52;8.80;;;3.25;;
29712;SDS011;16623;53.632;10.016;2022-10-16T05:46:18;6.03;;;2.70;;
29712;SDS011;16623;53.632;10.016;2022-10-16T05:48:43;5.15;;;2.90;;
29712;SDS011;16623;53.632;10.016;2022-10-16T05:51:10;9.70;;;2.97;;
29712;SDS011;16623;53.632;10.016;2022-10-16T05:53:37;7.53;;;2.60;;
29712;SDS011;16623;53.632;10.016;2022-10-16T05:56:05;6.50;;;2.72;;
29712;SDS011;16623;53.632;10.016;2022-10-16T05:58:32;6.30;;;2.50;;
29712;SDS011;16623;53.632;10.016;2022-10-16T06:01:02;4.85;;;2.45;;
29712;SDS011;16623;53.632;10.016;2022-10-16T06:03:30;5.38;;;2.50;;
29712;SDS011;16623;53.632;10.016;2022-10-16T06:05:56;6.20;;;2.15;;
29712;SDS011;16623;53.632;10.016;2022-10-16T06:08:22;7.00;;;2.25;;
29712;SDS011;16623;53.632;10.016;2022-10-16T06:10:49;5.80;;;2.42;;
29712;SDS011;16623;53.632;10.016;2022-10-16T06:13:30;10.75;;;2.30;;
29712;SDS011;16623;53.632;10.016;2022-10-16T06:15:56;6.10;;;2.05;;
29712;SDS011;16623;53.632;10.016;2022-10-16T06:18:24;6.60;;;2.05;;
29712;SDS011;16623;53.632;10.016;2022-10-16T06:20:50;5.68;;;2.10;;
29712;SDS011;16623;53.632;10.016;2022-10-16T06:23:15;8.27;;;3.03;;
29712;SDS011;16623;53.632;10.016;2022-10-16T06:25:41;6.00;;;2.60;;
29712;SDS011;16623;53.632;10.016;2022-10-16T06:28:06;7.55;;;2.50;;
29712;SDS011;16623;53.632;10.016;2022-10-16T06:30:32;3.47;;;2.20;;
29712;SDS011;16623;53.632;10.016;2022-10-16T06:32:57;4.78;;;1.90;;
29712;SDS011;16623;53.632;10.016;2022-10-16T06:35:23;5.32;;;2.20;;
29712;SDS011;16623;53.632;10.016;2022-10-16T06:37:49;4.82;;;2.20;;
29712;SDS011;16623;53.632;10.016;2022-10-16T06:40:14;8.23;;;1.73;;
29712;SDS011;16623;53.632;10.016;2022-10-16T06:42:40;3.88;;;1.70;;
29712;SDS011;16623;53.632;10.016;2022-10-16T06:45:06;11.07;;;3.25;;
29712;SDS011;16623;53.632;10.016;2022-10-16T06:47:32;7.05;;;1.90;;
29712;SDS011;16623;53.632;10.016;2022-10-16T06:49:58;4.22;;;2.05;;
29712;SDS011;16623;53.632;10.016;2022-10-16T06:52:23;8.07;;;2.45;;
29712;SDS011;16623;53.632;10.016;2022-10-16T06:54:49;2.38;;;2.03;;
29712;SDS011;16623;53.632;10.016;2022-10-16T06:57:15;4.88;;;2.50;;
29712;SDS011;16623;53.632;10.016;2022-10-16T06:59:41;9.60;;;2.20;;
29712;SDS011;16623;53.632;10.016;2022-10-16T07:02:07;7.45;;;2.13;;
29712;SDS011;16623;53.632;10.016;2022-10-16T07:04:35;6.90;;;2.20;;
29712;SDS011;16623;53.632;10.016;2022-10-16T07:07:01;5.93;;;2.30;;
29712;SDS011;16623;53.632;10.016;2022-10-16T07:09:27;5.80;;;2.90;;
29712;SDS011;16623;53.632;10.016;2022-10-16T07:11:52;8.85;;;2.42;;
29712;SDS011;16623;53.632;10.016;2022-10-16T07:14:18;3.40;;;2.05;;
29712;SDS011;16623;53.632;10.016;2022-10-16T07:16:45;5.82;;;2.50;;
29712;SDS011;16623;53.632;10.016;2022-10-16T07:19:12;5.78;;;2.33;;
29712;SDS011;16623;53.632;10.016;2022-10-16T07:21:39;7.10;;;2.60;;
29712;SDS011;16623;53.632;10.016;2022-10-16T07:24:06;4.10;;;1.92;;
29712;SDS011;16623;53.632;10.016;2022-10-16T07:26:37;4.28;;;2.13;;
29712;SDS011;16623;53.632;10.016;2022-10-16T07:29:04;8.00;;;2.63;;
29712;SDS011;16623;53.632;10.016;2022-10-16T07:31:37;6.43;;;2.33;;
29712;SDS011;16623;53.632;10.016;2022-10-16T07:34:04;10.15;;;2.72;;
29712;SDS011;16623;53.632;10.016;2022-10-16T07:36:29;6.22;;;2.80;;
29712;SDS011;16623;53.632;10.016;2022-10-16T07:38:55;6.13;;;3.00;;
29712;SDS011;16623;53.632;10.016;2022-10-16T07:41:20;6.60;;;2.50;;
29712;SDS011;16623;53.632;10.016;2022-10-16T07:43:46;5.65;;;3.05;;
29712;SDS011;16623;53.632;10.016;2022-10-16T07:46:13;9.73;;;2.33;;
29712;SDS011;16623;53.632;10.016;2022-10-16T07:48:39;4.80;;;2.33;;
29712;SDS011;16623;53.632;10.016;2022-10-16T07:51:05;6.50;;;3.08;;
29712;SDS011;16623;53.632;10.016;2022-10-16T07:53:32;5.93;;;3.05;;
29712;SDS011;16623;53.632;10.016;2022-10-16T07:56:01;6.72;;;2.85;;
29712;SDS011;16623;53.632;10.016;2022-10-16T07:58:31;5.57;;;2.70;;
29712;SDS011;16623;53.632;10.016;2022-10-16T08:00:58;5.20;;;3.38;;
29712;SDS011;16623;53.632;10.016;2022-10-16T08:03:27;7.97;;;3.22;;
29712;SDS011;16623;53.632;10.016;2022-10-16T08:05:53;5.07;;;3.22;;
29712;SDS011;16623;53.632;10.016;2022-10-16T08:08:19;7.38;;;3.35;;
29712;SDS011;16623;53.632;10.016;2022-10-16T08:10:44;4.93;;;2.72;;
29712;SDS011;16623;53.632;10.016;2022-10-16T08:13:10;5.85;;;2.35;;
29712;SDS011;16623;53.632;10.016;2022-10-16T08:15:36;4.68;;;2.70;;
29712;SDS011;16623;53.632;10.016;2022-10-16T08:18:02;5.15;;;2.85;;
29712;SDS011;16623;53.632;10.016;2022-10-16T08:20:29;4.53;;;3.15;;
29712;SDS011;16623;53.632;10.016;2022-10-16T08:22:56;6.88;;;3.20;;
29712;SDS011;16623;53.632;10.016;2022-10-16T08:25:23;4.00;;;2.42;;
29712;SDS011;16623;53.632;10.016;2022-10-16T08:27:49;5.60;;;2.85;;
29712;SDS011;16623;53.632;10.016;2022-10-16T08:30:15;5.25;;;3.10;;
29712;SDS011;16623;53.632;10.016;2022-10-16T08:32:44;4.50;;;2.70;;
29712;SDS011;16623;53.632;10.016;2022-10-16T08:35:10;7.75;;;3.10;;
29712;SDS011;16623;53.632;10.016;2022-10-16T08:37:37;6.55;;;3.17;;
29712;SDS011;16623;53.632;10.016;2022-10-16T08:40:03;5.25;;;2.47;;
29712;SDS011;16623;53.632;10.016;2022-10-16T08:45:29;4.45;;;2.60;;
29712;SDS011;16623;53.632;10.016;2022-10-16T08:50:48;9.33;;;3.13;;
29712;SDS011;16623;53.632;10.016;2022-10-16T08:53:35;7.53;;;2.97;;
29712;SDS011;16623;53.632;10.016;2022-10-16T08:56:14;8.40;;;3.13;;
29712;SDS011;16623;53.632;10.016;2022-10-16T08:58:40;6.07;;;2.70;;
29712;SDS011;16623;53.632;10.016;2022-10-16T09:01:11;5.10;;;2.60;;
29712;SDS011;16623;53.632;10.016;2022-10-16T09:12:13;5.88;;;2.22;;
29712;SDS011;16623;53.632;10.016;2022-10-16T09:15:06;2.72;;;2.20;;
29712;SDS011;16623;53.632;10.016;2022-10-16T09:23:48;5.80;;;2.13;;
29712;SDS011;16623;53.632;10.016;2022-10-16T09:26:15;6.65;;;2.60;;
29712;SDS011;16623;53.632;10.016;2022-10-16T09:28:41;7.28;;;2.75;;
29712;SDS011;16623;53.632;10.016;2022-10-16T09:31:17;4.95;;;2.03;;
29712;SDS011;16623;53.632;10.016;2022-10-16T09:33:47;5.80;;;1.50;;
29712;SDS011;16623;53.632;10.016;2022-10-16T09:36:16;4.05;;;2.00;;
29712;SDS011;16623;53.632;10.016;2022-10-16T09:38:43;4.72;;;1.63;;
29712;SDS011;16623;53.632;10.016;2022-10-16T09:43:41;8.35;;;2.08;;
29712;SDS011;16623;53.632;10.016;2022-10-16T09:46:30;5.63;;;1.73;;
29712;SDS011;16623;53.632;10.016;2022-10-16T09:48:58;4.65;;;1.67;;
29712;SDS011;16623;53.632;10.016;2022-10-16T09:51:32;3.72;;;1.50;;
29712;SDS011;16623;53.632;10.016;2022-10-16T09:54:01;3.35;;;1.35;;
29712;SDS011;16623;53.632;10.016;2022-10-16T09:56:38;3.75;;;1.60;;
29712;SDS011;16623;53.632;10.016;2022-10-16T09:59:13;5.20;;;2.00;;
29712;SDS011;16623;53.632;10.016;2022-10-16T10:01:45;6.20;;;1.67;;
29712;SDS011;16623;53.632;10.016;2022-10-16T10:04:16;5.90;;;1.73;;
29712;SDS011;16623;53.632;10.016;2022-10-16T10:06:44;3.60;;;1.30;;
29712;SDS011;16623;53.632;10.016;2022-10-16T10:09:25;8.35;;;2.00;;
29712;SDS011;16623;53.632;10.016;2022-10-16T10:12:04;5.30;;;1.50;;
29712;SDS011;16623;53.632;10.016;2022-10-16T10:14:32;4.53;;;1.73;;
29712;SDS011;16623;53.632;10.016;2022-10-16T10:17:09;8.65;;;2.92;;
29712;SDS011;16623;53.632;10.016;2022-10-16T10:19:38;6.80;;;1.70;;
29712;SDS011;16623;53.632;10.016;2022-10-16T10:22:32;3.90;;;1.40;;
29712;SDS011;16623;53.632;10.016;2022-10-16T10:31:03;7.32;;;1.67;;
29712;SDS011;16623;53.632;10.016;2022-10-16T10:33:54;7.00;;;1.67;;
29712;SDS011;16623;53.632;10.016;2022-10-16T10:36:42;6.25;;;1.85;;
29712;SDS011;16623;53.632;10.016;2022-10-16T10:42:07;8.98;;;1.92;;
29712;SDS011;16623;53.632;10.016;2022-10-16T10:59:19;18.20;;;2.13;;
29712;SDS011;16623;53.632;10.016;2022-10-16T11:07:57;9.43;;;1.57;;
29712;SDS011;16623;53.632;10.016;2022-10-16T11:10:28;6.63;;;1.50;;
29712;SDS011;16623;53.632;10.016;2022-10-16T11:13:32;6.78;;;1.42;;
29712;SDS011;16623;53.632;10.016;2022-10-16T11:16:27;3.63;;;1.67;;
29712;SDS011;16623;53.632;10.016;2022-10-16T11:19:12;4.28;;;1.15;;
29712;SDS011;16623;53.632;10.016;2022-10-16T11:22:04;3.78;;;1.30;;
29712;SDS011;16623;53.632;10.016;2022-10-16T11:24:45;2.38;;;1.30;;
29712;SDS011;16623;53.632;10.016;2022-10-16T11:27:39;4.68;;;1.30;;
29712;SDS011;16623;53.632;10.016;2022-10-16T11:30:30;3.97;;;1.10;;
29712;SDS011;16623;53.632;10.016;2022-10-16T11:33:02;11.27;;;1.33;;
29712;SDS011;16623;53.632;10.016;2022-10-16T11:38:29;6.85;;;1.20;;
29712;SDS011;16623;53.632;10.016;2022-10-16T11:41:02;5.78;;;2.25;;
29712;SDS011;16623;53.632;10.016;2022-10-16T11:43:37;2.10;;;0.93;;
29712;SDS011;16623;53.632;10.016;2022-10-16T11:46:15;3.30;;;1.40;;
29712;SDS011;16623;53.632;10.016;2022-10-16T11:48:49;9.63;;;1.10;;
29712;SDS011;16623;53.632;10.016;2022-10-16T11:51:31;7.13;;;1.30;;
29712;SDS011;16623;53.632;10.016;2022-10-16T11:54:08;9.52;;;1.67;;
29712;SDS011;16623;53.632;10.016;2022-10-16T11:56:55;5.53;;;1.38;;
29712;SDS011;16623;53.632;10.016;2022-10-16T11:59:42;8.63;;;1.73;;
29712;SDS011;16623;53.632;10.016;2022-10-16T12:07:23;6.78;;;1.50;;
29712;SDS011;16623;53.632;10.016;2022-10-16T12:09:52;4.93;;;1.00;;
29712;SDS011;16623;53.632;10.016;2022-10-16T12:15:20;7.90;;;1.30;;
29712;SDS011;16623;53.632;10.016;2022-10-16T12:17:50;4.03;;;1.20;;
29712;SDS011;16623;53.632;10.016;2022-10-16T12:22:49;9.88;;;1.60;;
29712;SDS011;16623;53.632;10.016;2022-10-16T12:25:23;5.85;;;1.50;;
29712;SDS011;16623;53.632;10.016;2022-10-16T12:30:22;6.53;;;1.33;;
29712;SDS011;16623;53.632;10.016;2022-10-16T12:32:53;5.03;;;1.63;;
29712;SDS011;16623;53.632;10.016;2022-10-16T12:35:21;4.90;;;1.30;;
29712;SDS011;16623;53.632;10.016;2022-10-16T12:37:50;6.43;;;1.27;;
29712;SDS011;16623;53.632;10.016;2022-10-16T12:40:24;4.45;;;1.60;;
29712;SDS011;16623;53.632;10.016;2022-10-16T12:42:54;7.50;;;1.45;;
29712;SDS011;16623;53.632;10.016;2022-10-16T12:45:30;8.30;;;1.58;;
29712;SDS011;16623;53.632;10.016;2022-10-16T12:47:59;4.45;;;1.08;;
29712;SDS011;16623;53.632;10.016;2022-10-16T12:50:31;9.70;;;1.63;;
29712;SDS011;16623;53.632;10.016;2022-10-16T12:52:59;4.25;;;1.35;;
29712;SDS011;16623;53.632;10.016;2022-10-16T12:55:26;11.18;;;1.30;;
29712;SDS011;16623;53.632;10.016;2022-10-16T12:58:02;4.82;;;1.40;;
29712;SDS011;16623;53.632;10.016;2022-10-16T13:00:56;3.72;;;1.70;;
29712;SDS011;16623;53.632;10.016;2022-10-16T13:03:58;4.28;;;1.38;;
29712;SDS011;16623;53.632;10.016;2022-10-16T13:09:12;7.50;;;1.48;;
29712;SDS011;16623;53.632;10.016;2022-10-16T13:28:33;6.57;;;1.17;;
29712;SDS011;16623;53.632;10.016;2022-10-16T13:31:00;11.00;;;2.33;;
29712;SDS011;16623;53.632;10.016;2022-10-16T13:33:34;5.85;;;0.98;;
29712;SDS011;16623;53.632;10.016;2022-10-16T13:36:01;5.85;;;1.30;;
29712;SDS011;16623;53.632;10.016;2022-10-16T13:38:29;9.82;;;1.60;;
29712;SDS011;16623;53.632;10.016;2022-10-16T13:43:34;7.88;;;3.22;;
29712;SDS011;16623;53.632;10.016;2022-10-16T13:46:21;4.65;;;1.35;;
29712;SDS011;16623;53.632;10.016;2022-10-16T13:48:57;5.35;;;2.03;;
29712;SDS011;16623;53.632;10.016;2022-10-16T13:51:31;4.63;;;1.50;;
29712;SDS011;16623;53.632;10.016;2022-10-16T13:53:57;12.07;;;2.20;;
29712;SDS011;16623;53.632;10.016;2022-10-16T13:56:28;5.30;;;1.40;;
29712;SDS011;16623;53.632;10.016;2022-10-16T13:59:02;6.80;;;2.53;;
29712;SDS011;16623;53.632;10.016;2022-10-16T14:01:30;4.87;;;1.40;;
29712;SDS011;16623;53.632;10.016;2022-10-16T14:04:05;4.38;;;1.20;;
29712;SDS011;16623;53.632;10.016;2022-10-16T14:06:33;3.58;;;1.50;;
29712;SDS011;16623;53.632;10.016;2022-10-16T14:11:36;11.10;;;2.03;;
29712;SDS011;16623;53.632;10.016;2022-10-16T14:14:11;9.38;;;2.17;;
29712;SDS011;16623;53.632;10.016;2022-10-16T14:16:37;9.38;;;1.52;;
29712;SDS011;16623;53.632;10.016;2022-10-16T14:19:13;4.28;;;1.25;;
29712;SDS011;16623;53.632;10.016;2022-10-16T14:21:54;4.72;;;1.63;;
29712;SDS011;16623;53.632;10.016;2022-10-16T14:24:31;20.27;;;8.77;;
29712;SDS011;16623;53.632;10.016;2022-10-16T14:26:58;10.07;;;3.92;;
29712;SDS011;16623;53.632;10.016;2022-10-16T14:29:26;2.95;;;1.10;;
29712;SDS011;16623;53.632;10.016;2022-10-16T14:31:56;6.47;;;1.20;;
29712;SDS011;16623;53.632;10.016;2022-10-16T14:34:36;4.93;;;1.33;;
29712;SDS011;16623;53.632;10.016;2022-10-16T14:39:51;11.63;;;4.15;;
29712;SDS011;16623;53.632;10.016;2022-10-16T14:42:18;13.95;;;3.42;;
29712;SDS011;16623;53.632;10.016;2022-10-16T14:44:48;5.88;;;1.80;;
29712;SDS011;16623;53.632;10.016;2022-10-16T14:47:18;8.35;;;1.40;;
29712;SDS011;16623;53.632;10.016;2022-10-16T14:49:49;5.00;;;1.50;;
29712;SDS011;16623;53.632;10.016;2022-10-16T14:52:14;13.65;;;1.48;;
29712;SDS011;16623;53.632;10.016;2022-10-16T14:54:40;7.38;;;1.60;;
29712;SDS011;16623;53.632;10.016;2022-10-16T14:57:12;5.72;;;2.03;;
29712;SDS011;16623;53.632;10.016;2022-10-16T14:59:41;8.70;;;3.25;;
29712;SDS011;16623;53.632;10.016;2022-10-16T15:04:54;6.20;;;2.05;;
29712;SDS011;16623;53.632;10.016;2022-10-16T15:07:20;11.88;;;1.90;;
29712;SDS011;16623;53.632;10.016;2022-10-16T15:09:46;7.40;;;1.50;;
29712;SDS011;16623;53.632;10.016;2022-10-16T15:12:12;7.90;;;1.23;;
29712;SDS011;16623;53.632;10.016;2022-10-16T15:14:38;10.45;;;1.73;;
29712;SDS011;16623;53.632;10.016;2022-10-16T15:17:03;7.63;;;1.50;;
29712;SDS011;16623;53.632;10.016;2022-10-16T15:19:29;5.72;;;1.58;;
29712;SDS011;16623;53.632;10.016;2022-10-16T15:21:55;4.28;;;1.83;;
29712;SDS011;16623;53.632;10.016;2022-10-16T15:24:20;9.10;;;1.70;;
29712;SDS011;16623;53.632;10.016;2022-10-16T15:26:46;7.72;;;1.92;;
29712;SDS011;16623;53.632;10.016;2022-10-16T15:29:12;4.57;;;1.40;;
29712;SDS011;16623;53.632;10.016;2022-10-16T15:31:38;6.43;;;2.10;;
29712;SDS011;16623;53.632;10.016;2022-10-16T15:34:03;9.82;;;2.13;;
29712;SDS011;16623;53.632;10.016;2022-10-16T15:36:34;5.57;;;1.35;;
29712;SDS011;16623;53.632;10.016;2022-10-16T15:39:02;10.88;;;2.80;;
29712;SDS011;16623;53.632;10.016;2022-10-16T15:41:28;7.60;;;1.98;;
29712;SDS011;16623;53.632;10.016;2022-10-16T15:43:54;12.02;;;2.65;;
29712;SDS011;16623;53.632;10.016;2022-10-16T15:46:20;5.40;;;1.50;;
29712;SDS011;16623;53.632;10.016;2022-10-16T15:48:48;4.70;;;1.70;;
29712;SDS011;16623;53.632;10.016;2022-10-16T15:51:15;23.42;;;12.18;;
29712;SDS011;16623;53.632;10.016;2022-10-16T15:53:41;21.15;;;11.13;;
29712;SDS011;16623;53.632;10.016;2022-10-16T15:56:08;12.70;;;2.50;;
29712;SDS011;16623;53.632;10.016;2022-10-16T15:58:35;5.88;;;1.80;;
29712;SDS011;16623;53.632;10.016;2022-10-16T16:01:00;11.63;;;1.98;;
29712;SDS011;16623;53.632;10.016;2022-10-16T16:03:28;8.18;;;1.60;;
29712;SDS011;16623;53.632;10.016;2022-10-16T16:05:55;10.20;;;3.30;;
29712;SDS011;16623;53.632;10.016;2022-10-16T16:08:21;6.45;;;1.90;;
29712;SDS011;16623;53.632;10.016;2022-10-16T16:13:45;6.93;;;1.75;;
29712;SDS011;16623;53.632;10.016;2022-10-16T16:16:11;7.55;;;1.65;;
29712;SDS011;16623;53.632;10.016;2022-10-16T16:18:39;6.90;;;1.70;;
29712;SDS011;16623;53.632;10.016;2022-10-16T16:21:06;6.20;;;1.58;;
29712;SDS011;16623;53.632;10.016;2022-10-16T16:23:35;6.72;;;1.90;;
29712;SDS011;16623;53.632;10.016;2022-10-16T16:31:02;7.18;;;1.92;;
29712;SDS011;16623;53.632;10.016;2022-10-16T16:33:28;14.18;;;2.25;;
29712;SDS011;16623;53.632;10.016;2022-10-16T16:35:57;5.32;;;1.98;;
29712;SDS011;16623;53.632;10.016;2022-10-16T16:38:24;7.65;;;2.42;;
29712;SDS011;16623;53.632;10.016;2022-10-16T16:40:50;7.97;;;1.92;;
29712;SDS011;16623;53.632;10.016;2022-10-16T16:43:17;14.45;;;3.13;;
29712;SDS011;16623;53.632;10.016;2022-10-16T16:45:43;6.63;;;2.40;;
29712;SDS011;16623;53.632;10.016;2022-10-16T16:48:09;5.55;;;2.15;;